sensor_id;sensor_type;location;lat;lon;timestamp;temperature;humidity
6986;DHT22;3533;51.246;6.850;2023-02-17T00:00:34;19.60;38.80
6986;DHT22;3533;51.246;6.850;2023-02-17T00:03:00;19.60;38.90
6986;DHT22;3533;51.246;6.850;2023-02-17T00:05:26;19.60;38.90
6986;DHT22;3533;51.246;6.850;2023-02-17T00:07:52;19.60;38.80
6986;DHT22;3533;51.246;6.850;2023-02-17T00:10:18;19.60;38.90
6986;DHT22;3533;51.246;6.850;2023-02-17T00:12:44;19.60;38.90
6986;DHT22;3533;51.246;6.850;2023-02-17T00:15:09;19.60;38.90
6986;DHT22;3533;51.246;6.850;2023-02-17T00:17:35;19.60;38.90
6986;DHT22;3533;51.246;6.850;2023-02-17T00:20:00;19.60;38.90
6986;DHT22;3533;51.246;6.850;2023-02-17T00:22:26;19.60;38.90
6986;DHT22;3533;51.246;6.850;2023-02-17T00:24:52;19.60;38.90
6986;DHT22;3533;51.246;6.850;2023-02-17T00:27:17;19.60;38.90
6986;DHT22;3533;51.246;6.850;2023-02-17T00:29:44;19.60;38.90
6986;DHT22;3533;51.246;6.850;2023-02-17T00:32:09;19.60;38.90
6986;DHT22;3533;51.246;6.850;2023-02-17T00:34:35;19.50;38.80
6986;DHT22;3533;51.246;6.850;2023-02-17T00:37:01;19.60;39.60
6986;DHT22;3533;51.246;6.850;2023-02-17T00:39:27;19.60;38.90
6986;DHT22;3533;51.246;6.850;2023-02-17T00:41:52;19.50;38.80
6986;DHT22;3533;51.246;6.850;2023-02-17T00:44:20;19.50;38.80
6986;DHT22;3533;51.246;6.850;2023-02-17T00:46:47;19.60;39.60
6986;DHT22;3533;51.246;6.850;2023-02-17T00:49:20;19.50;38.80
6986;DHT22;3533;51.246;6.850;2023-02-17T00:51:46;19.60;38.90
6986;DHT22;3533;51.246;6.850;2023-02-17T00:54:13;19.60;38.90
6986;DHT22;3533;51.246;6.850;2023-02-17T00:56:39;19.50;38.80
6986;DHT22;3533;51.246;6.850;2023-02-17T00:59:05;19.50;38.80
6986;DHT22;3533;51.246;6.850;2023-02-17T01:01:31;19.50;38.80
6986;DHT22;3533;51.246;6.850;2023-02-17T01:03:58;19.50;38.80
6986;DHT22;3533;51.246;6.850;2023-02-17T01:06:26;19.50;38.80
6986;DHT22;3533;51.246;6.850;2023-02-17T01:08:53;19.50;38.80
6986;DHT22;3533;51.246;6.850;2023-02-17T01:11:22;19.50;38.80
6986;DHT22;3533;51.246;6.850;2023-02-17T01:13:48;19.50;38.80
6986;DHT22;3533;51.246;6.850;2023-02-17T01:16:20;19.50;38.80
6986;DHT22;3533;51.246;6.850;2023-02-17T01:18:47;19.50;38.80
6986;DHT22;3533;51.246;6.850;2023-02-17T01:21:21;19.50;38.80
6986;DHT22;3533;51.246;6.850;2023-02-17T01:23:51;19.50;38.80
6986;DHT22;3533;51.246;6.850;2023-02-17T01:26:20;19.50;38.80
6986;DHT22;3533;51.246;6.850;2023-02-17T01:28:47;19.50;38.80
6986;DHT22;3533;51.246;6.850;2023-02-17T01:31:13;19.60;38.90
6986;DHT22;3533;51.246;6.850;2023-02-17T01:33:39;19.60;38.90
6986;DHT22;3533;51.246;6.850;2023-02-17T01:36:07;19.60;38.90
6986;DHT22;3533;51.246;6.850;2023-02-17T01:38:35;19.60;38.90
6986;DHT22;3533;51.246;6.850;2023-02-17T01:41:01;19.60;38.90
6986;DHT22;3533;51.246;6.850;2023-02-17T01:43:27;19.60;38.90
6986;DHT22;3533;51.246;6.850;2023-02-17T01:45:57;19.60;38.90
6986;DHT22;3533;51.246;6.850;2023-02-17T01:54:09;19.50;39.50
6986;DHT22;3533;51.246;6.850;2023-02-17T01:56:39;19.60;38.90
6986;DHT22;3533;51.246;6.850;2023-02-17T01:59:10;19.50;38.80
6986;DHT22;3533;51.246;6.850;2023-02-17T02:01:38;19.60;38.90
6986;DHT22;3533;51.246;6.850;2023-02-17T02:04:05;19.60;38.90
6986;DHT22;3533;51.246;6.850;2023-02-17T02:06:33;19.60;38.90
6986;DHT22;3533;51.246;6.850;2023-02-17T02:09:08;19.60;38.90
6986;DHT22;3533;51.246;6.850;2023-02-17T02:11:35;19.60;38.90
6986;DHT22;3533;51.246;6.850;2023-02-17T02:14:03;19.60;38.90
6986;DHT22;3533;51.246;6.850;2023-02-17T02:19:57;19.60;38.90
6986;DHT22;3533;51.246;6.850;2023-02-17T02:28:03;19.60;38.90
6986;DHT22;3533;51.246;6.850;2023-02-17T02:33:42;19.50;38.80
6986;DHT22;3533;51.246;6.850;2023-02-17T02:36:25;19.60;38.90
6986;DHT22;3533;51.246;6.850;2023-02-17T02:38:57;19.60;38.90
6986;DHT22;3533;51.246;6.850;2023-02-17T02:41:28;19.60;38.90
6986;DHT22;3533;51.246;6.850;2023-02-17T02:43:55;19.60;38.90
6986;DHT22;3533;51.246;6.850;2023-02-17T02:46:21;19.60;38.90
6986;DHT22;3533;51.246;6.850;2023-02-17T02:48:47;19.60;38.90
6986;DHT22;3533;51.246;6.850;2023-02-17T02:51:39;19.50;38.80
6986;DHT22;3533;51.246;6.850;2023-02-17T02:54:40;19.50;38.80
6986;DHT22;3533;51.246;6.850;2023-02-17T02:57:17;19.50;38.80
6986;DHT22;3533;51.246;6.850;2023-02-17T03:02:49;19.50;38.80
6986;DHT22;3533;51.246;6.850;2023-02-17T03:08:38;19.50;38.80
6986;DHT22;3533;51.246;6.850;2023-02-17T03:11:05;19.50;38.80
6986;DHT22;3533;51.246;6.850;2023-02-17T03:13:35;19.50;38.80
6986;DHT22;3533;51.246;6.850;2023-02-17T03:16:04;19.50;38.80
6986;DHT22;3533;51.246;6.850;2023-02-17T03:18:34;19.50;38.80
6986;DHT22;3533;51.246;6.850;2023-02-17T03:21:08;19.50;38.80
6986;DHT22;3533;51.246;6.850;2023-02-17T03:23:35;19.50;38.80
6986;DHT22;3533;51.246;6.850;2023-02-17T03:26:01;19.50;38.80
6986;DHT22;3533;51.246;6.850;2023-02-17T03:28:26;19.50;38.80
6986;DHT22;3533;51.246;6.850;2023-02-17T03:30:52;19.50;38.80
6986;DHT22;3533;51.246;6.850;2023-02-17T03:33:17;19.50;38.80
6986;DHT22;3533;51.246;6.850;2023-02-17T03:35:43;19.50;38.80
6986;DHT22;3533;51.246;6.850;2023-02-17T03:38:08;19.50;39.50
6986;DHT22;3533;51.246;6.850;2023-02-17T03:40:34;19.50;38.80
6986;DHT22;3533;51.246;6.850;2023-02-17T03:42:59;19.50;38.80
6986;DHT22;3533;51.246;6.850;2023-02-17T03:45:25;19.50;38.80
6986;DHT22;3533;51.246;6.850;2023-02-17T03:47:50;19.50;38.80
6986;DHT22;3533;51.246;6.850;2023-02-17T03:50:16;19.50;38.80
6986;DHT22;3533;51.246;6.850;2023-02-17T03:52:42;19.50;38.80
6986;DHT22;3533;51.246;6.850;2023-02-17T03:55:07;19.50;38.80
6986;DHT22;3533;51.246;6.850;2023-02-17T03:57:33;19.50;38.80
6986;DHT22;3533;51.246;6.850;2023-02-17T03:59:59;19.50;38.80
6986;DHT22;3533;51.246;6.850;2023-02-17T04:02:24;19.50;38.80
6986;DHT22;3533;51.246;6.850;2023-02-17T04:04:50;19.50;38.80
6986;DHT22;3533;51.246;6.850;2023-02-17T04:07:15;19.50;39.50
6986;DHT22;3533;51.246;6.850;2023-02-17T04:09:41;19.50;38.80
6986;DHT22;3533;51.246;6.850;2023-02-17T04:12:07;19.50;38.80
6986;DHT22;3533;51.246;6.850;2023-02-17T04:14:32;19.50;38.80
6986;DHT22;3533;51.246;6.850;2023-02-17T04:16:58;19.50;38.80
6986;DHT22;3533;51.246;6.850;2023-02-17T04:19:23;19.50;38.80
6986;DHT22;3533;51.246;6.850;2023-02-17T04:21:49;19.40;38.70
6986;DHT22;3533;51.246;6.850;2023-02-17T04:24:14;19.50;38.80
6986;DHT22;3533;51.246;6.850;2023-02-17T04:26:40;19.40;38.70
6986;DHT22;3533;51.246;6.850;2023-02-17T04:29:05;19.50;38.80
6986;DHT22;3533;51.246;6.850;2023-02-17T04:31:31;19.50;38.80
6986;DHT22;3533;51.246;6.850;2023-02-17T04:33:56;19.50;38.80
6986;DHT22;3533;51.246;6.850;2023-02-17T04:36:22;19.40;38.70
6986;DHT22;3533;51.246;6.850;2023-02-17T04:38:48;19.40;38.70
6986;DHT22;3533;51.246;6.850;2023-02-17T04:41:13;19.50;38.80
6986;DHT22;3533;51.246;6.850;2023-02-17T04:43:39;19.40;38.70
6986;DHT22;3533;51.246;6.850;2023-02-17T04:46:04;19.50;38.80
6986;DHT22;3533;51.246;6.850;2023-02-17T04:48:30;19.50;38.80
6986;DHT22;3533;51.246;6.850;2023-02-17T04:50:55;19.50;38.80
6986;DHT22;3533;51.246;6.850;2023-02-17T04:53:21;19.50;38.80
6986;DHT22;3533;51.246;6.850;2023-02-17T04:55:48;19.50;38.80
6986;DHT22;3533;51.246;6.850;2023-02-17T04:58:15;19.50;38.80
6986;DHT22;3533;51.246;6.850;2023-02-17T05:00:40;19.50;38.80
6986;DHT22;3533;51.246;6.850;2023-02-17T05:03:06;19.50;38.80
6986;DHT22;3533;51.246;6.850;2023-02-17T05:05:31;19.50;38.80
6986;DHT22;3533;51.246;6.850;2023-02-17T05:07:57;19.50;38.80
6986;DHT22;3533;51.246;6.850;2023-02-17T05:10:23;19.50;38.80
6986;DHT22;3533;51.246;6.850;2023-02-17T05:12:48;19.50;38.80
6986;DHT22;3533;51.246;6.850;2023-02-17T05:15:14;19.50;38.80
6986;DHT22;3533;51.246;6.850;2023-02-17T05:17:39;19.50;38.80
6986;DHT22;3533;51.246;6.850;2023-02-17T05:20:06;19.50;38.80
6986;DHT22;3533;51.246;6.850;2023-02-17T05:22:31;19.50;38.80
6986;DHT22;3533;51.246;6.850;2023-02-17T05:24:57;19.60;38.90
6986;DHT22;3533;51.246;6.850;2023-02-17T05:27:23;19.60;38.90
6986;DHT22;3533;51.246;6.850;2023-02-17T05:29:48;19.60;38.90
6986;DHT22;3533;51.246;6.850;2023-02-17T05:32:15;19.60;38.90
6986;DHT22;3533;51.246;6.850;2023-02-17T05:34:41;19.60;38.90
6986;DHT22;3533;51.246;6.850;2023-02-17T05:37:07;19.70;39.00
6986;DHT22;3533;51.246;6.850;2023-02-17T05:39:32;19.70;39.00
6986;DHT22;3533;51.246;6.850;2023-02-17T05:41:58;19.70;39.00
6986;DHT22;3533;51.246;6.850;2023-02-17T05:44:23;19.60;38.90
6986;DHT22;3533;51.246;6.850;2023-02-17T05:46:49;19.70;39.00
6986;DHT22;3533;51.246;6.850;2023-02-17T05:49:14;19.70;39.00
6986;DHT22;3533;51.246;6.850;2023-02-17T05:51:40;19.70;39.00
6986;DHT22;3533;51.246;6.850;2023-02-17T05:54:05;19.70;39.00
6986;DHT22;3533;51.246;6.850;2023-02-17T05:56:32;19.70;39.00
6986;DHT22;3533;51.246;6.850;2023-02-17T05:58:58;19.70;39.00
6986;DHT22;3533;51.246;6.850;2023-02-17T06:01:24;19.70;39.00
6986;DHT22;3533;51.246;6.850;2023-02-17T06:03:50;19.70;39.00
6986;DHT22;3533;51.246;6.850;2023-02-17T06:06:15;19.70;39.00
6986;DHT22;3533;51.246;6.850;2023-02-17T06:08:41;19.70;39.00
6986;DHT22;3533;51.246;6.850;2023-02-17T06:11:07;19.70;39.00
6986;DHT22;3533;51.246;6.850;2023-02-17T06:13:32;19.70;39.00
6986;DHT22;3533;51.246;6.850;2023-02-17T06:15:58;19.70;39.00
6986;DHT22;3533;51.246;6.850;2023-02-17T06:18:23;19.70;39.00
6986;DHT22;3533;51.246;6.850;2023-02-17T06:20:49;19.70;39.00
6986;DHT22;3533;51.246;6.850;2023-02-17T06:23:15;19.70;39.00
6986;DHT22;3533;51.246;6.850;2023-02-17T06:25:41;19.70;39.00
6986;DHT22;3533;51.246;6.850;2023-02-17T06:28:06;19.70;39.00
6986;DHT22;3533;51.246;6.850;2023-02-17T06:30:32;19.70;39.00
6986;DHT22;3533;51.246;6.850;2023-02-17T06:32:58;19.70;39.00
6986;DHT22;3533;51.246;6.850;2023-02-17T06:35:24;19.70;39.70
6986;DHT22;3533;51.246;6.850;2023-02-17T06:37:49;19.70;39.00
6986;DHT22;3533;51.246;6.850;2023-02-17T06:40:15;19.70;39.00
6986;DHT22;3533;51.246;6.850;2023-02-17T06:42:41;19.70;39.00
6986;DHT22;3533;51.246;6.850;2023-02-17T06:45:07;19.70;39.00
6986;DHT22;3533;51.246;6.850;2023-02-17T06:47:33;19.70;39.00
6986;DHT22;3533;51.246;6.850;2023-02-17T06:49:59;19.70;39.00
6986;DHT22;3533;51.246;6.850;2023-02-17T06:52:24;19.70;39.00
6986;DHT22;3533;51.246;6.850;2023-02-17T06:54:50;19.70;39.00
6986;DHT22;3533;51.246;6.850;2023-02-17T06:57:16;19.70;39.00
6986;DHT22;3533;51.246;6.850;2023-02-17T06:59:42;19.70;39.00
6986;DHT22;3533;51.246;6.850;2023-02-17T07:02:12;19.70;39.00
6986;DHT22;3533;51.246;6.850;2023-02-17T07:04:41;19.70;39.00
6986;DHT22;3533;51.246;6.850;2023-02-17T07:07:07;19.70;39.00
6986;DHT22;3533;51.246;6.850;2023-02-17T07:09:33;19.70;39.00
6986;DHT22;3533;51.246;6.850;2023-02-17T07:11:59;19.70;39.00
6986;DHT22;3533;51.246;6.850;2023-02-17T07:14:26;19.70;39.00
6986;DHT22;3533;51.246;6.850;2023-02-17T07:16:52;19.70;39.00
6986;DHT22;3533;51.246;6.850;2023-02-17T07:19:17;19.70;39.00
6986;DHT22;3533;51.246;6.850;2023-02-17T07:21:43;19.70;39.00
6986;DHT22;3533;51.246;6.850;2023-02-17T07:24:09;19.70;39.00
6986;DHT22;3533;51.246;6.850;2023-02-17T07:26:36;19.60;38.90
6986;DHT22;3533;51.246;6.850;2023-02-17T07:29:03;19.70;39.70
6986;DHT22;3533;51.246;6.850;2023-02-17T07:31:29;19.70;39.00
6986;DHT22;3533;51.246;6.850;2023-02-17T07:33:55;19.60;38.90
6986;DHT22;3533;51.246;6.850;2023-02-17T07:36:20;19.60;38.90
6986;DHT22;3533;51.246;6.850;2023-02-17T07:38:46;19.60;38.90
6986;DHT22;3533;51.246;6.850;2023-02-17T07:41:14;19.60;38.90
6986;DHT22;3533;51.246;6.850;2023-02-17T07:43:40;19.60;38.90
6986;DHT22;3533;51.246;6.850;2023-02-17T07:46:07;19.60;38.90
6986;DHT22;3533;51.246;6.850;2023-02-17T07:48:33;19.60;38.90
6986;DHT22;3533;51.246;6.850;2023-02-17T07:51:06;19.60;38.90
6986;DHT22;3533;51.246;6.850;2023-02-17T07:53:32;19.60;38.90
6986;DHT22;3533;51.246;6.850;2023-02-17T07:55:58;19.60;38.90
6986;DHT22;3533;51.246;6.850;2023-02-17T07:58:23;19.60;38.90
6986;DHT22;3533;51.246;6.850;2023-02-17T08:00:49;19.60;38.90
6986;DHT22;3533;51.246;6.850;2023-02-17T08:03:14;19.60;38.90
6986;DHT22;3533;51.246;6.850;2023-02-17T08:05:40;19.60;38.90
6986;DHT22;3533;51.246;6.850;2023-02-17T08:08:08;19.50;38.80
6986;DHT22;3533;51.246;6.850;2023-02-17T08:10:53;19.60;38.90
6986;DHT22;3533;51.246;6.850;2023-02-17T08:13:37;19.50;38.80
6986;DHT22;3533;51.246;6.850;2023-02-17T08:16:03;19.50;38.80
6986;DHT22;3533;51.246;6.850;2023-02-17T08:18:28;19.50;38.80
6986;DHT22;3533;51.246;6.850;2023-02-17T08:20:54;19.50;38.80
6986;DHT22;3533;51.246;6.850;2023-02-17T08:23:20;19.50;38.80
6986;DHT22;3533;51.246;6.850;2023-02-17T08:25:45;19.50;38.80
6986;DHT22;3533;51.246;6.850;2023-02-17T08:28:11;19.50;38.80
6986;DHT22;3533;51.246;6.850;2023-02-17T08:30:37;19.50;38.80
6986;DHT22;3533;51.246;6.850;2023-02-17T08:33:04;19.50;38.80
6986;DHT22;3533;51.246;6.850;2023-02-17T08:35:29;19.50;39.50
6986;DHT22;3533;51.246;6.850;2023-02-17T08:37:55;19.50;38.80
6986;DHT22;3533;51.246;6.850;2023-02-17T08:40:21;19.50;38.80
6986;DHT22;3533;51.246;6.850;2023-02-17T08:42:46;19.50;38.80
6986;DHT22;3533;51.246;6.850;2023-02-17T08:45:13;19.50;38.80
6986;DHT22;3533;51.246;6.850;2023-02-17T08:47:40;19.50;38.80
6986;DHT22;3533;51.246;6.850;2023-02-17T08:50:07;19.50;38.80
6986;DHT22;3533;51.246;6.850;2023-02-17T08:52:34;19.50;38.80
6986;DHT22;3533;51.246;6.850;2023-02-17T08:55:00;19.50;38.80
6986;DHT22;3533;51.246;6.850;2023-02-17T08:57:25;19.50;38.80
6986;DHT22;3533;51.246;6.850;2023-02-17T08:59:52;19.50;38.80
6986;DHT22;3533;51.246;6.850;2023-02-17T09:02:18;19.60;38.90
6986;DHT22;3533;51.246;6.850;2023-02-17T09:04:43;19.60;38.90
6986;DHT22;3533;51.246;6.850;2023-02-17T09:07:11;19.60;38.90
6986;DHT22;3533;51.246;6.850;2023-02-17T09:09:37;19.60;38.90
6986;DHT22;3533;51.246;6.850;2023-02-17T09:12:03;19.60;38.90
6986;DHT22;3533;51.246;6.850;2023-02-17T09:14:29;19.70;39.00
6986;DHT22;3533;51.246;6.850;2023-02-17T09:16:56;19.70;39.00
6986;DHT22;3533;51.246;6.850;2023-02-17T09:19:22;19.70;39.00
6986;DHT22;3533;51.246;6.850;2023-02-17T09:21:47;19.70;39.00
6986;DHT22;3533;51.246;6.850;2023-02-17T09:24:14;19.70;39.00
6986;DHT22;3533;51.246;6.850;2023-02-17T09:26:40;19.70;39.00
6986;DHT22;3533;51.246;6.850;2023-02-17T09:29:06;19.70;39.00
6986;DHT22;3533;51.246;6.850;2023-02-17T09:31:33;19.70;39.00
6986;DHT22;3533;51.246;6.850;2023-02-17T09:33:59;19.70;39.00
6986;DHT22;3533;51.246;6.850;2023-02-17T09:36:32;19.70;39.00
6986;DHT22;3533;51.246;6.850;2023-02-17T09:38:59;19.70;39.00
6986;DHT22;3533;51.246;6.850;2023-02-17T09:41:36;19.70;39.00
6986;DHT22;3533;51.246;6.850;2023-02-17T09:44:05;19.70;39.00
6986;DHT22;3533;51.246;6.850;2023-02-17T09:46:36;19.70;39.00
6986;DHT22;3533;51.246;6.850;2023-02-17T09:49:11;19.70;39.00
6986;DHT22;3533;51.246;6.850;2023-02-17T09:51:47;19.70;39.00
6986;DHT22;3533;51.246;6.850;2023-02-17T09:54:31;19.70;39.00
6986;DHT22;3533;51.246;6.850;2023-02-17T09:57:02;19.70;39.00
6986;DHT22;3533;51.246;6.850;2023-02-17T10:02:31;19.70;39.00
6986;DHT22;3533;51.246;6.850;2023-02-17T10:05:01;19.70;39.00
6986;DHT22;3533;51.246;6.850;2023-02-17T10:07:33;19.70;39.00
6986;DHT22;3533;51.246;6.850;2023-02-17T10:10:13;19.70;39.00
6986;DHT22;3533;51.246;6.850;2023-02-17T10:12:45;19.70;39.00
6986;DHT22;3533;51.246;6.850;2023-02-17T10:15:16;19.70;39.00
6986;DHT22;3533;51.246;6.850;2023-02-17T10:20:16;19.70;39.00
6986;DHT22;3533;51.246;6.850;2023-02-17T10:22:45;19.70;39.00
6986;DHT22;3533;51.246;6.850;2023-02-17T10:25:24;19.70;39.00
6986;DHT22;3533;51.246;6.850;2023-02-17T10:28:03;19.70;39.00
6986;DHT22;3533;51.246;6.850;2023-02-17T10:30:52;19.70;39.00
6986;DHT22;3533;51.246;6.850;2023-02-17T10:33:29;19.70;39.00
6986;DHT22;3533;51.246;6.850;2023-02-17T10:36:14;19.70;39.00
6986;DHT22;3533;51.246;6.850;2023-02-17T10:38:47;19.70;39.00
6986;DHT22;3533;51.246;6.850;2023-02-17T10:41:19;19.70;39.00
6986;DHT22;3533;51.246;6.850;2023-02-17T10:43:47;19.70;39.00
6986;DHT22;3533;51.246;6.850;2023-02-17T10:46:15;19.70;39.00
6986;DHT22;3533;51.246;6.850;2023-02-17T10:48:51;19.70;39.00
6986;DHT22;3533;51.246;6.850;2023-02-17T10:51:20;19.70;39.00
6986;DHT22;3533;51.246;6.850;2023-02-17T10:53:54;19.70;39.00
6986;DHT22;3533;51.246;6.850;2023-02-17T10:56:43;19.70;39.00
6986;DHT22;3533;51.246;6.850;2023-02-17T10:59:14;19.70;39.00
6986;DHT22;3533;51.246;6.850;2023-02-17T11:01:43;19.70;39.00
6986;DHT22;3533;51.246;6.850;2023-02-17T11:04:10;19.70;39.00
6986;DHT22;3533;51.246;6.850;2023-02-17T11:06:44;19.70;39.00
6986;DHT22;3533;51.246;6.850;2023-02-17T11:09:25;19.70;39.00
6986;DHT22;3533;51.246;6.850;2023-02-17T11:12:03;19.70;39.00
6986;DHT22;3533;51.246;6.850;2023-02-17T11:14:32;19.70;39.00
6986;DHT22;3533;51.246;6.850;2023-02-17T11:17:00;19.70;39.00
6986;DHT22;3533;51.246;6.850;2023-02-17T11:21:56;19.70;39.00
6986;DHT22;3533;51.246;6.850;2023-02-17T11:24:23;19.70;39.00
6986;DHT22;3533;51.246;6.850;2023-02-17T11:27:03;19.70;39.00
6986;DHT22;3533;51.246;6.850;2023-02-17T11:29:29;19.70;39.00
6986;DHT22;3533;51.246;6.850;2023-02-17T11:32:00;19.70;39.00
6986;DHT22;3533;51.246;6.850;2023-02-17T11:34:30;19.70;39.00
6986;DHT22;3533;51.246;6.850;2023-02-17T11:39:41;19.70;39.00
6986;DHT22;3533;51.246;6.850;2023-02-17T11:42:33;19.70;39.00
6986;DHT22;3533;51.246;6.850;2023-02-17T11:45:00;19.70;39.00
6986;DHT22;3533;51.246;6.850;2023-02-17T11:47:38;19.60;38.90
6986;DHT22;3533;51.246;6.850;2023-02-17T11:50:27;19.70;39.00
6986;DHT22;3533;51.246;6.850;2023-02-17T11:53:40;19.70;39.00
6986;DHT22;3533;51.246;6.850;2023-02-17T11:56:19;19.70;39.00
6986;DHT22;3533;51.246;6.850;2023-02-17T12:09:30;19.70;39.30
6986;DHT22;3533;51.246;6.850;2023-02-17T12:26:38;19.70;39.20
6986;DHT22;3533;51.246;6.850;2023-02-17T12:35:00;19.70;39.20
6986;DHT22;3533;51.246;6.850;2023-02-17T12:37:31;19.70;39.40
6986;DHT22;3533;51.246;6.850;2023-02-17T12:40:19;19.70;39.40
6986;DHT22;3533;51.246;6.850;2023-02-17T12:45:41;19.70;39.40
6986;DHT22;3533;51.246;6.850;2023-02-17T12:48:37;19.70;39.30
6986;DHT22;3533;51.246;6.850;2023-02-17T12:51:08;19.70;39.30
6986;DHT22;3533;51.246;6.850;2023-02-17T12:53:54;19.70;39.30
6986;DHT22;3533;51.246;6.850;2023-02-17T12:58:51;19.80;39.30
6986;DHT22;3533;51.246;6.850;2023-02-17T13:01:19;19.70;39.20
6986;DHT22;3533;51.246;6.850;2023-02-17T13:03:46;19.80;39.20
6986;DHT22;3533;51.246;6.850;2023-02-17T13:06:29;19.80;39.30
6986;DHT22;3533;51.246;6.850;2023-02-17T13:09:07;19.80;39.20
6986;DHT22;3533;51.246;6.850;2023-02-17T13:11:39;19.80;39.20
6986;DHT22;3533;51.246;6.850;2023-02-17T13:14:22;19.80;39.30
6986;DHT22;3533;51.246;6.850;2023-02-17T13:16:48;19.80;39.30
6986;DHT22;3533;51.246;6.850;2023-02-17T13:19:14;19.80;39.40
6986;DHT22;3533;51.246;6.850;2023-02-17T13:21:52;19.80;39.30
6986;DHT22;3533;51.246;6.850;2023-02-17T13:24:38;19.80;39.40
6986;DHT22;3533;51.246;6.850;2023-02-17T13:32:36;19.80;39.50
6986;DHT22;3533;51.246;6.850;2023-02-17T13:35:06;19.70;39.50
6986;DHT22;3533;51.246;6.850;2023-02-17T13:37:40;19.70;39.40
6986;DHT22;3533;51.246;6.850;2023-02-17T13:42:45;19.70;39.50
6986;DHT22;3533;51.246;6.850;2023-02-17T13:47:44;19.70;39.50
6986;DHT22;3533;51.246;6.850;2023-02-17T13:52:58;19.70;39.50
6986;DHT22;3533;51.246;6.850;2023-02-17T13:55:24;19.70;39.50
6986;DHT22;3533;51.246;6.850;2023-02-17T13:57:54;19.70;39.60
6986;DHT22;3533;51.246;6.850;2023-02-17T14:00:21;19.70;39.60
6986;DHT22;3533;51.246;6.850;2023-02-17T14:02:50;19.70;39.60
6986;DHT22;3533;51.246;6.850;2023-02-17T14:08:00;19.70;39.60
6986;DHT22;3533;51.246;6.850;2023-02-17T14:10:27;19.70;39.70
6986;DHT22;3533;51.246;6.850;2023-02-17T14:12:54;19.70;39.70
6986;DHT22;3533;51.246;6.850;2023-02-17T14:15:23;19.70;39.70
6986;DHT22;3533;51.246;6.850;2023-02-17T14:17:49;19.70;39.80
6986;DHT22;3533;51.246;6.850;2023-02-17T14:23:05;19.70;39.70
6986;DHT22;3533;51.246;6.850;2023-02-17T14:25:35;19.70;39.80
6986;DHT22;3533;51.246;6.850;2023-02-17T14:28:01;19.60;39.70
6986;DHT22;3533;51.246;6.850;2023-02-17T14:30:37;19.70;39.80
6986;DHT22;3533;51.246;6.850;2023-02-17T14:33:18;19.60;39.80
6986;DHT22;3533;51.246;6.850;2023-02-17T14:35:57;19.60;39.70
6986;DHT22;3533;51.246;6.850;2023-02-17T14:38:35;19.60;39.80
6986;DHT22;3533;51.246;6.850;2023-02-17T14:41:02;19.60;39.80
6986;DHT22;3533;51.246;6.850;2023-02-17T14:43:28;19.60;39.80
6986;DHT22;3533;51.246;6.850;2023-02-17T14:45:54;19.60;39.80
6986;DHT22;3533;51.246;6.850;2023-02-17T14:48:20;19.60;39.90
6986;DHT22;3533;51.246;6.850;2023-02-17T14:50:46;19.60;40.00
6986;DHT22;3533;51.246;6.850;2023-02-17T14:53:12;19.60;39.90
6986;DHT22;3533;51.246;6.850;2023-02-17T14:55:48;19.60;39.90
6986;DHT22;3533;51.246;6.850;2023-02-17T14:58:19;19.60;39.90
6986;DHT22;3533;51.246;6.850;2023-02-17T15:00:45;19.60;40.70
6986;DHT22;3533;51.246;6.850;2023-02-17T15:03:11;19.60;40.70
6986;DHT22;3533;51.246;6.850;2023-02-17T15:05:36;19.60;40.00
6986;DHT22;3533;51.246;6.850;2023-02-17T15:08:02;19.60;40.00
6986;DHT22;3533;51.246;6.850;2023-02-17T15:10:28;19.60;40.00
6986;DHT22;3533;51.246;6.850;2023-02-17T15:12:54;19.60;39.90
6986;DHT22;3533;51.246;6.850;2023-02-17T15:15:20;19.60;40.00
6986;DHT22;3533;51.246;6.850;2023-02-17T15:17:46;19.50;39.90
6986;DHT22;3533;51.246;6.850;2023-02-17T15:20:13;19.50;39.90
6986;DHT22;3533;51.246;6.850;2023-02-17T15:22:40;19.60;40.00
6986;DHT22;3533;51.246;6.850;2023-02-17T15:25:14;19.60;40.00
6986;DHT22;3533;51.246;6.850;2023-02-17T15:27:41;19.60;40.00
6986;DHT22;3533;51.246;6.850;2023-02-17T15:30:15;19.60;40.00
6986;DHT22;3533;51.246;6.850;2023-02-17T15:32:42;19.50;39.90
6986;DHT22;3533;51.246;6.850;2023-02-17T15:35:17;19.50;39.90
6986;DHT22;3533;51.246;6.850;2023-02-17T15:37:43;19.60;40.10
6986;DHT22;3533;51.246;6.850;2023-02-17T15:40:17;19.60;40.10
6986;DHT22;3533;51.246;6.850;2023-02-17T15:42:45;19.50;39.90
6986;DHT22;3533;51.246;6.850;2023-02-17T15:45:13;19.60;40.10
6986;DHT22;3533;51.246;6.850;2023-02-17T15:47:39;19.60;39.90
6986;DHT22;3533;51.246;6.850;2023-02-17T15:50:21;19.60;39.90
6986;DHT22;3533;51.246;6.850;2023-02-17T15:52:48;19.60;39.80
6986;DHT22;3533;51.246;6.850;2023-02-17T15:55:14;19.70;39.90
6986;DHT22;3533;51.246;6.850;2023-02-17T15:57:44;19.60;39.80
6986;DHT22;3533;51.246;6.850;2023-02-17T16:00:19;19.60;39.80
6986;DHT22;3533;51.246;6.850;2023-02-17T16:02:46;19.70;40.70
6986;DHT22;3533;51.246;6.850;2023-02-17T16:05:13;19.60;39.80
6986;DHT22;3533;51.246;6.850;2023-02-17T16:07:39;19.70;39.90
6986;DHT22;3533;51.246;6.850;2023-02-17T16:10:05;19.60;39.90
6986;DHT22;3533;51.246;6.850;2023-02-17T16:12:31;19.60;39.90
6986;DHT22;3533;51.246;6.850;2023-02-17T16:14:57;19.60;39.90
6986;DHT22;3533;51.246;6.850;2023-02-17T16:17:23;19.70;40.00
6986;DHT22;3533;51.246;6.850;2023-02-17T16:19:49;19.70;40.00
6986;DHT22;3533;51.246;6.850;2023-02-17T16:22:14;19.60;39.90
6986;DHT22;3533;51.246;6.850;2023-02-17T16:24:40;19.70;40.00
6986;DHT22;3533;51.246;6.850;2023-02-17T16:27:09;19.70;40.00
6986;DHT22;3533;51.246;6.850;2023-02-17T16:29:37;19.70;40.00
6986;DHT22;3533;51.246;6.850;2023-02-17T16:32:02;19.70;40.10
6986;DHT22;3533;51.246;6.850;2023-02-17T16:34:28;19.70;40.00
6986;DHT22;3533;51.246;6.850;2023-02-17T16:36:58;19.60;40.00
6986;DHT22;3533;51.246;6.850;2023-02-17T16:39:24;19.70;40.00
6986;DHT22;3533;51.246;6.850;2023-02-17T16:41:50;19.70;40.00
6986;DHT22;3533;51.246;6.850;2023-02-17T16:44:18;19.70;40.00
6986;DHT22;3533;51.246;6.850;2023-02-17T16:46:52;19.70;40.00
6986;DHT22;3533;51.246;6.850;2023-02-17T16:49:27;19.60;40.70
6986;DHT22;3533;51.246;6.850;2023-02-17T16:52:01;19.70;40.00
6986;DHT22;3533;51.246;6.850;2023-02-17T16:54:27;19.70;40.00
6986;DHT22;3533;51.246;6.850;2023-02-17T16:56:53;19.70;40.00
6986;DHT22;3533;51.246;6.850;2023-02-17T16:59:21;19.70;40.00
6986;DHT22;3533;51.246;6.850;2023-02-17T17:01:47;19.70;40.00
6986;DHT22;3533;51.246;6.850;2023-02-17T17:04:13;19.70;39.90
6986;DHT22;3533;51.246;6.850;2023-02-17T17:06:46;19.70;40.00
6986;DHT22;3533;51.246;6.850;2023-02-17T17:09:18;19.70;40.00
6986;DHT22;3533;51.246;6.850;2023-02-17T17:11:43;19.70;40.00
6986;DHT22;3533;51.246;6.850;2023-02-17T17:14:09;19.70;40.10
6986;DHT22;3533;51.246;6.850;2023-02-17T17:16:35;19.70;40.10
6986;DHT22;3533;51.246;6.850;2023-02-17T17:19:01;19.70;40.00
6986;DHT22;3533;51.246;6.850;2023-02-17T17:21:27;19.70;40.00
6986;DHT22;3533;51.246;6.850;2023-02-17T17:23:53;19.70;40.10
6986;DHT22;3533;51.246;6.850;2023-02-17T17:26:27;19.70;40.00
6986;DHT22;3533;51.246;6.850;2023-02-17T17:28:55;19.70;40.00
6986;DHT22;3533;51.246;6.850;2023-02-17T17:31:22;19.70;40.00
6986;DHT22;3533;51.246;6.850;2023-02-17T17:33:49;19.70;40.00
6986;DHT22;3533;51.246;6.850;2023-02-17T17:38:53;19.70;40.00
6986;DHT22;3533;51.246;6.850;2023-02-17T17:41:20;19.70;40.00
6986;DHT22;3533;51.246;6.850;2023-02-17T17:43:46;19.60;39.90